createdAt,value
2023-05-04T00:00:47.824Z,198.94
2023-05-04T00:01:48.571Z,198.39
2023-05-04T00:02:48.082Z,199.31
2023-05-04T00:03:48.313Z,198.56
2023-05-04T00:04:48.129Z,199.41
2023-05-04T00:05:48.096Z,198.12
2023-05-04T00:06:48.163Z,199.20
2023-05-04T00:07:48.594Z,198.60
2023-05-04T00:08:48.287Z,199.69
2023-05-04T00:09:48.323Z,198.40
2023-05-04T00:10:48.380Z,199.36
2023-05-04T00:11:48.431Z,198.57
2023-05-04T00:12:48.526Z,199.29
2023-05-04T00:13:48.518Z,198.81
2023-05-04T00:14:49.074Z,198.71
2023-05-04T00:15:48.647Z,197.87
2023-05-04T00:16:48.845Z,198.84
2023-05-04T00:17:48.797Z,198.88
2023-05-04T00:18:48.803Z,198.01
2023-05-04T00:19:48.861Z,198.06
2023-05-04T00:20:48.892Z,198.37
2023-05-04T00:21:48.960Z,198.12
2023-05-04T00:22:49.004Z,198.87
2023-05-04T00:23:49.117Z,198.75
2023-05-04T00:24:49.106Z,198.71
2023-05-04T00:25:49.135Z,198.58
2023-05-04T00:26:49.175Z,198.58
2023-05-04T00:27:49.226Z,198.06
2023-05-04T00:28:49.285Z,197.50
2023-05-04T00:29:49.297Z,197.60
2023-05-04T00:30:49.356Z,197.99
2023-05-04T00:31:49.402Z,197.94
2023-05-04T00:32:49.466Z,197.75
2023-05-04T00:33:49.494Z,197.42
2023-05-04T00:34:50.084Z,199.07
2023-05-04T00:35:49.611Z,197.63
2023-05-04T00:36:49.619Z,198.69
2023-05-04T00:37:49.673Z,198.73
2023-05-04T00:38:49.714Z,197.94
2023-05-04T00:39:49.753Z,198.63
2023-05-04T00:40:49.802Z,198.47
2023-05-04T00:41:49.862Z,197.44
2023-05-04T00:42:49.919Z,198.90
2023-05-04T00:43:49.951Z,197.38
2023-05-04T00:44:50.002Z,197.21
2023-05-04T00:45:50.069Z,197.98
2023-05-04T00:46:50.185Z,198.09
2023-05-04T00:47:50.253Z,197.86
2023-05-04T00:48:50.197Z,198.16
2023-05-04T00:49:50.393Z,198.01
2023-05-04T00:50:50.299Z,198.65
2023-05-04T00:51:50.374Z,198.15
2023-05-04T00:52:50.401Z,199.07
2023-05-04T00:53:50.450Z,197.40
2023-05-04T00:54:50.494Z,198.58
2023-05-04T00:55:50.560Z,197.99
2023-05-04T00:56:50.631Z,198.85
2023-05-04T00:57:50.675Z,198.11
2023-05-04T00:58:50.717Z,198.59
2023-05-04T00:59:50.769Z,196.87
2023-05-04T01:00:50.871Z,197.86
2023-05-04T01:01:50.894Z,197.48
2023-05-04T01:02:51.002Z,197.03
2023-05-04T01:03:51.012Z,198.03
2023-05-04T01:04:51.061Z,196.90
2023-05-04T01:05:51.190Z,198.43
2023-05-04T01:06:51.152Z,197.86
2023-05-04T01:07:51.221Z,197.70
2023-05-04T01:08:51.267Z,197.26
2023-05-04T01:09:51.323Z,197.08
2023-05-04T01:10:51.380Z,197.56
2023-05-04T01:11:51.432Z,197.66
2023-05-04T01:12:51.570Z,197.93
2023-05-04T01:13:51.537Z,196.35
2023-05-04T01:14:51.599Z,197.03
2023-05-04T01:15:51.644Z,197.16
2023-05-04T01:16:51.720Z,197.57
2023-05-04T01:17:51.777Z,196.44
2023-05-04T01:18:51.799Z,197.55
2023-05-04T01:19:51.862Z,197.47
2023-05-04T01:20:51.917Z,197.40
2023-05-04T01:21:51.954Z,197.32
2023-05-04T01:22:51.993Z,197.54
2023-05-04T01:23:52.044Z,196.84
2023-05-04T01:24:52.094Z,196.84
2023-05-04T01:25:52.163Z,197.33
2023-05-04T01:26:52.185Z,196.79
2023-05-04T01:27:52.233Z,197.00
2023-05-04T01:28:52.280Z,196.71
2023-05-04T01:29:52.343Z,197.01
2023-05-04T01:30:52.531Z,194.89
2023-05-04T01:31:52.455Z,196.53
2023-05-04T01:32:52.502Z,196.22
2023-05-04T01:33:52.535Z,196.50
2023-05-04T01:34:52.589Z,196.04
2023-05-04T01:35:52.654Z,196.61
2023-05-04T01:36:52.686Z,196.38
2023-05-04T01:37:52.751Z,195.48
2023-05-04T01:38:52.858Z,197.13
2023-05-04T01:39:52.842Z,196.31
2023-05-04T01:40:52.893Z,195.28
2023-05-04T01:41:52.956Z,196.13
2023-05-04T01:42:53.011Z,196.23
2023-05-04T01:43:53.051Z,195.69
2023-05-04T01:44:53.098Z,195.13
2023-05-04T01:45:53.182Z,195.53
2023-05-04T01:46:53.228Z,195.62
2023-05-04T01:47:53.655Z,195.81
2023-05-04T01:48:53.336Z,196.91
2023-05-04T01:49:53.389Z,194.48
2023-05-04T01:50:53.512Z,195.47
2023-05-04T01:51:53.491Z,196.04
2023-05-04T01:52:53.545Z,194.93
2023-05-04T01:53:53.580Z,194.93
2023-05-04T01:54:53.632Z,195.22
2023-05-04T01:55:53.705Z,195.85
2023-05-04T01:56:53.731Z,195.35
2023-05-04T01:57:53.796Z,194.21
2023-05-04T01:58:53.833Z,195.00
2023-05-04T01:59:53.881Z,195.39
2023-05-04T02:00:53.924Z,195.36
2023-05-04T02:01:53.999Z,194.20
2023-05-04T02:02:54.115Z,194.31
2023-05-04T02:03:54.157Z,194.14
2023-05-04T02:04:54.106Z,193.27
2023-05-04T02:05:54.158Z,194.02
2023-05-04T02:06:54.232Z,194.11
2023-05-04T02:07:54.256Z,193.93
2023-05-04T02:08:54.305Z,194.50
2023-05-04T02:09:55.122Z,193.95
2023-05-04T02:10:54.401Z,193.62
2023-05-04T02:11:54.457Z,193.96
2023-05-04T02:12:54.511Z,194.33
2023-05-04T02:13:54.550Z,193.32
2023-05-04T02:14:54.600Z,194.06
2023-05-04T02:15:54.675Z,193.05
2023-05-04T02:16:54.711Z,193.00
2023-05-04T02:17:54.771Z,194.57
2023-05-04T02:18:54.837Z,192.94
2023-05-04T02:19:54.834Z,194.31
2023-05-04T02:20:54.852Z,194.40
2023-05-04T02:21:54.909Z,193.62
2023-05-04T02:22:54.969Z,193.73
2023-05-04T02:23:55.014Z,193.35
2023-05-04T02:24:55.054Z,194.05
2023-05-04T02:25:55.110Z,191.90
2023-05-04T02:26:55.148Z,192.71
2023-05-04T02:27:55.207Z,194.06
2023-05-04T02:28:55.341Z,193.25
2023-05-04T02:29:55.301Z,193.78
2023-05-04T02:30:55.369Z,192.90
2023-05-04T02:31:55.483Z,192.19
2023-05-04T02:32:55.498Z,192.63
2023-05-04T02:33:55.501Z,192.88
2023-05-04T02:34:55.560Z,193.63
2023-05-04T02:35:55.666Z,194.12
2023-05-04T02:36:55.672Z,192.79
2023-05-04T02:37:55.777Z,193.49
2023-05-04T02:38:55.756Z,193.56
2023-05-04T02:39:55.794Z,193.27
2023-05-04T02:40:55.836Z,193.50
2023-05-04T02:41:55.879Z,194.10
2023-05-04T02:42:55.954Z,193.33
2023-05-04T02:43:55.988Z,193.00
2023-05-04T02:44:56.061Z,192.28
2023-05-04T02:45:56.136Z,193.87
2023-05-04T02:46:56.138Z,193.08
2023-05-04T02:47:56.220Z,194.05
2023-05-04T02:48:56.258Z,192.92
2023-05-04T02:49:56.276Z,193.14
2023-05-04T02:50:56.331Z,193.13
2023-05-04T02:51:56.383Z,192.56
2023-05-04T02:52:56.425Z,192.84
2023-05-04T02:53:56.545Z,193.68
2023-05-04T02:54:56.538Z,193.32
2023-05-04T02:55:57.139Z,191.32
2023-05-04T02:56:56.602Z,192.40
2023-05-04T02:57:56.641Z,192.36
2023-05-04T02:58:56.750Z,193.09
2023-05-04T02:59:56.806Z,194.03
2023-05-04T03:00:56.828Z,193.63
2023-05-04T03:01:56.883Z,193.16
2023-05-04T03:02:56.914Z,193.25
2023-05-04T03:03:56.949Z,192.48
2023-05-04T03:04:56.985Z,193.63
2023-05-04T03:05:57.031Z,193.40
2023-05-04T03:06:57.088Z,193.16
2023-05-04T03:07:57.138Z,193.25
2023-05-04T03:08:57.184Z,192.86
2023-05-04T03:09:57.248Z,192.35
2023-05-04T03:10:57.297Z,192.55
2023-05-04T03:11:57.357Z,192.42
2023-05-04T03:12:57.477Z,193.43
2023-05-04T03:13:57.466Z,193.21
2023-05-04T03:14:57.525Z,192.43
2023-05-04T03:15:57.623Z,191.58
2023-05-04T03:16:57.666Z,192.79
2023-05-04T03:17:57.781Z,192.48
2023-05-04T03:18:57.736Z,193.09
2023-05-04T03:19:57.876Z,192.51
2023-05-04T03:20:57.830Z,192.41
2023-05-04T03:21:57.898Z,191.21
2023-05-04T03:22:57.926Z,192.03
2023-05-04T03:23:57.961Z,193.31
2023-05-04T03:24:58.016Z,192.22
2023-05-04T03:25:58.050Z,192.00
2023-05-04T03:26:58.174Z,192.06
2023-05-04T03:27:58.151Z,193.25
2023-05-04T03:28:58.184Z,191.54
2023-05-04T03:29:59.181Z,192.35
2023-05-04T03:30:58.328Z,191.70
2023-05-04T03:31:58.400Z,192.88
2023-05-04T03:32:58.394Z,191.75
2023-05-04T03:33:58.427Z,191.57
2023-05-04T03:34:58.544Z,190.91
2023-05-04T03:35:58.515Z,192.42
2023-05-04T03:36:58.572Z,191.71
2023-05-04T03:37:58.605Z,191.24
2023-05-04T03:38:58.656Z,190.51
2023-05-04T03:39:58.719Z,189.67
2023-05-04T03:40:58.753Z,189.54
2023-05-04T03:41:58.819Z,190.83
2023-05-04T03:42:58.856Z,191.19
2023-05-04T03:43:58.926Z,191.09
2023-05-04T03:44:58.967Z,189.58
2023-05-04T03:45:59.075Z,189.27
2023-05-04T03:46:59.064Z,190.19
2023-05-04T03:47:59.132Z,190.91
2023-05-04T03:48:59.140Z,190.54
2023-05-04T03:49:59.209Z,189.65
2023-05-04T03:50:59.275Z,190.77
2023-05-04T03:51:59.334Z,188.11
2023-05-04T03:52:59.392Z,190.30
2023-05-04T03:53:59.450Z,190.10
2023-05-04T03:54:59.488Z,190.19
2023-05-04T03:55:59.549Z,190.32
2023-05-04T03:56:59.602Z,189.57
2023-05-04T03:57:59.659Z,190.17
2023-05-04T03:58:59.720Z,189.80
2023-05-04T03:59:59.755Z,188.79
2023-05-04T04:00:59.822Z,190.06
2023-05-04T04:01:59.889Z,189.18
2023-05-04T04:03:00.005Z,189.71
2023-05-04T04:04:00.058Z,190.84
2023-05-04T04:05:00.029Z,190.53
2023-05-04T04:06:00.094Z,189.29
2023-05-04T04:07:00.133Z,190.69
2023-05-04T04:08:00.230Z,189.59
2023-05-04T04:09:00.228Z,190.75
2023-05-04T04:10:00.266Z,190.33
2023-05-04T04:11:00.345Z,189.36
2023-05-04T04:12:00.387Z,189.28
2023-05-04T04:13:00.487Z,190.70
2023-05-04T04:14:00.492Z,188.12
2023-05-04T04:15:00.562Z,189.85
2023-05-04T04:16:00.616Z,188.74
2023-05-04T04:17:00.652Z,189.93
2023-05-04T04:18:00.803Z,190.63
2023-05-04T04:19:00.725Z,188.61
2023-05-04T04:20:00.765Z,190.27
2023-05-04T04:21:01.675Z,190.27
2023-05-04T04:22:00.870Z,189.74
2023-05-04T04:23:00.923Z,190.34
2023-05-04T04:24:00.972Z,189.31
2023-05-04T04:25:00.995Z,189.86
2023-05-04T04:26:01.180Z,189.50
2023-05-04T04:27:01.125Z,189.88
2023-05-04T04:28:01.183Z,189.97
2023-05-04T04:29:01.223Z,188.53
2023-05-04T04:30:01.294Z,189.61
2023-05-04T04:31:01.439Z,189.83
2023-05-04T04:32:01.360Z,190.11
2023-05-04T04:33:01.458Z,190.50
2023-05-04T04:34:01.437Z,189.91
2023-05-04T04:35:01.472Z,189.53
2023-05-04T04:36:01.508Z,190.05
2023-05-04T04:37:01.557Z,189.89
2023-05-04T04:38:03.629Z,190.04
2023-05-04T04:39:01.668Z,190.93
2023-05-04T04:40:01.719Z,189.71
2023-05-04T04:41:01.754Z,190.27
2023-05-04T04:42:01.818Z,189.94
2023-05-04T04:43:01.871Z,189.95
2023-05-04T04:44:01.917Z,189.44
2023-05-04T04:45:01.957Z,189.29
2023-05-04T04:46:02.026Z,190.26
2023-05-04T04:47:02.141Z,188.97
2023-05-04T04:48:02.196Z,189.98
2023-05-04T04:49:02.188Z,188.12
2023-05-04T04:50:02.444Z,190.56
2023-05-04T04:51:02.283Z,189.64
2023-05-04T04:52:02.333Z,189.62
2023-05-04T04:53:02.411Z,188.62
2023-05-04T04:54:02.471Z,188.14
2023-05-04T04:55:02.520Z,189.22
2023-05-04T04:56:02.568Z,188.38
2023-05-04T04:57:02.591Z,189.19
2023-05-04T04:58:02.638Z,190.60
2023-05-04T04:59:02.666Z,189.47
2023-05-04T05:00:02.866Z,190.49
2023-05-04T05:01:02.855Z,189.13
2023-05-04T05:02:02.798Z,189.89
2023-05-04T05:03:02.897Z,189.29
2023-05-04T05:04:02.872Z,189.54
2023-05-04T05:05:02.941Z,187.23
2023-05-04T05:06:02.947Z,188.57
2023-05-04T05:07:03.037Z,188.34
2023-05-04T05:08:03.036Z,189.41
2023-05-04T05:09:03.080Z,186.78
2023-05-04T05:10:03.291Z,189.80
2023-05-04T05:11:03.157Z,188.58
2023-05-04T05:12:03.201Z,188.13
2023-05-04T05:13:03.301Z,187.94
2023-05-04T05:14:03.276Z,188.83
2023-05-04T05:15:03.325Z,189.04
2023-05-04T05:16:03.368Z,188.80
2023-05-04T05:17:03.550Z,186.75
2023-05-04T05:18:03.528Z,188.60
2023-05-04T05:19:03.509Z,188.67
2023-05-04T05:20:03.794Z,188.19
2023-05-04T05:21:03.602Z,187.71
2023-05-04T05:22:03.644Z,187.79
2023-05-04T05:23:04.200Z,187.82
2023-05-04T05:24:03.734Z,188.72
2023-05-04T05:25:03.754Z,187.95
2023-05-04T05:26:03.802Z,188.07
2023-05-04T05:27:03.859Z,188.72
2023-05-04T05:28:03.910Z,189.85
2023-05-04T05:29:03.962Z,190.67
2023-05-04T05:30:04.208Z,190.47
2023-05-04T05:31:04.140Z,193.42
2023-05-04T05:32:04.139Z,196.00
2023-05-04T05:33:04.267Z,199.30
2023-05-04T05:34:04.254Z,205.22
2023-05-04T05:35:04.284Z,208.46
2023-05-04T05:36:04.395Z,215.76
2023-05-04T05:37:04.374Z,220.49
2023-05-04T05:38:04.400Z,226.20
2023-05-04T05:39:04.428Z,230.97
2023-05-04T05:40:04.627Z,235.73
2023-05-04T05:41:04.477Z,241.75
2023-05-04T05:42:04.501Z,246.88
2023-05-04T05:43:05.215Z,250.00
2023-05-04T05:44:05.239Z,250.00
2023-05-04T05:45:04.567Z,250.00
2023-05-04T05:46:04.575Z,249.51
2023-05-04T05:47:04.546Z,250.22
2023-05-04T05:48:04.650Z,250.00
2023-05-04T05:49:04.568Z,249.90
2023-05-04T05:50:04.879Z,250.00
2023-05-04T05:51:04.579Z,250.00
2023-05-04T05:52:04.590Z,250.00
2023-05-04T05:53:04.600Z,250.00
2023-05-04T05:54:04.694Z,250.34
2023-05-04T05:55:04.605Z,250.00
2023-05-04T05:56:04.596Z,250.00
2023-05-04T05:57:04.585Z,250.04
2023-05-04T05:58:04.648Z,250.00
2023-05-04T05:59:04.581Z,249.42
2023-05-04T06:00:04.798Z,250.00
2023-05-04T06:01:05.138Z,249.81
2023-05-04T06:02:04.558Z,249.15
2023-05-04T06:03:04.637Z,250.30
2023-05-04T06:04:04.773Z,249.72
2023-05-04T06:05:05.377Z,249.95
2023-05-04T06:06:04.572Z,250.00
2023-05-04T06:07:04.566Z,249.65
2023-05-04T06:08:04.558Z,250.00
2023-05-04T06:09:04.592Z,250.00
2023-05-04T06:10:04.892Z,249.53
2023-05-04T06:11:04.604Z,249.67
2023-05-04T06:12:04.597Z,249.81
2023-05-04T06:13:04.723Z,250.00
2023-05-04T06:14:05.240Z,250.00
2023-05-04T06:15:04.707Z,249.69
2023-05-04T06:16:04.706Z,250.33
2023-05-04T06:17:04.726Z,250.00
2023-05-04T06:18:04.817Z,250.00
2023-05-04T06:19:04.758Z,248.97
2023-05-04T06:20:06.098Z,250.00
2023-05-04T06:21:05.229Z,249.76
2023-05-04T06:22:04.868Z,249.94
2023-05-04T06:23:04.895Z,249.06
2023-05-04T06:24:04.932Z,250.00
2023-05-04T06:25:07.687Z,250.17
2023-05-04T06:26:04.932Z,250.00
2023-05-04T06:27:04.903Z,249.39
2023-05-04T06:28:04.881Z,249.37
2023-05-04T06:29:04.872Z,250.00
2023-05-04T06:30:05.029Z,249.13
2023-05-04T06:31:04.846Z,248.09
2023-05-04T06:32:05.010Z,247.31
2023-05-04T06:33:04.810Z,245.21
2023-05-04T06:34:04.827Z,238.78
2023-05-04T06:35:04.746Z,233.22
2023-05-04T06:36:04.725Z,234.08
2023-05-04T06:37:04.709Z,227.90
2023-05-04T06:38:04.694Z,228.59
2023-05-04T06:39:04.753Z,223.46
2023-05-04T06:40:04.653Z,221.95
2023-05-04T06:41:04.667Z,221.66
2023-05-04T06:42:04.638Z,218.17
2023-05-04T06:43:04.682Z,210.60
2023-05-04T06:44:04.690Z,207.08
2023-05-04T06:45:04.586Z,206.44
2023-05-04T06:46:04.698Z,205.50
2023-05-04T06:47:04.572Z,202.57
2023-05-04T06:48:04.684Z,202.11
2023-05-04T06:49:04.544Z,197.29
2023-05-04T06:50:04.701Z,193.18
2023-05-04T06:51:04.501Z,192.51
2023-05-04T06:52:04.500Z,194.69
2023-05-04T06:53:04.487Z,193.30
2023-05-04T06:54:04.455Z,193.36
2023-05-04T06:55:04.519Z,193.01
2023-05-04T06:56:05.231Z,192.07
2023-05-04T06:57:04.451Z,189.22
2023-05-04T06:58:04.425Z,189.10
2023-05-04T06:59:04.415Z,187.97
2023-05-04T07:00:04.587Z,186.69
2023-05-04T07:01:04.425Z,182.32
2023-05-04T07:02:04.384Z,178.36
2023-05-04T07:03:04.378Z,175.71
2023-05-04T07:04:04.450Z,177.16
2023-05-04T07:05:04.329Z,174.62
2023-05-04T07:06:04.316Z,174.24
2023-05-04T07:07:05.239Z,173.96
2023-05-04T07:08:04.351Z,172.13
2023-05-04T07:09:04.269Z,169.42
2023-05-04T07:10:04.548Z,168.92
2023-05-04T07:11:04.246Z,168.59
2023-05-04T07:12:04.240Z,167.75
2023-05-04T07:13:04.244Z,166.72
2023-05-04T07:14:04.373Z,165.61
2023-05-04T07:15:04.187Z,164.52
2023-05-04T07:16:04.240Z,161.08
2023-05-04T07:17:04.165Z,155.47
2023-05-04T07:18:04.190Z,151.96
2023-05-04T07:19:04.134Z,149.30
2023-05-04T07:20:04.488Z,146.78
2023-05-04T07:21:21.774Z,145.17
2023-05-04T07:22:05.101Z,145.23
2023-05-04T07:23:04.075Z,145.29
2023-05-04T07:24:04.114Z,145.63
2023-05-04T07:25:04.744Z,146.42
2023-05-04T07:26:04.055Z,146.83
2023-05-04T07:27:04.052Z,146.73
2023-05-04T07:28:04.046Z,146.83
2023-05-04T07:29:04.027Z,144.98
2023-05-04T07:30:05.310Z,145.07
2023-05-04T07:31:04.014Z,145.43
2023-05-04T07:32:04.056Z,145.73
2023-05-04T07:33:04.701Z,145.84
2023-05-04T07:34:03.978Z,145.41
2023-05-04T07:35:04.739Z,146.07
2023-05-04T07:36:03.928Z,145.42
2023-05-04T07:37:03.909Z,145.07
2023-05-04T07:38:03.903Z,143.55
2023-05-04T07:39:03.930Z,143.92
2023-05-04T07:40:04.133Z,144.06
2023-05-04T07:41:03.842Z,144.11
2023-05-04T07:42:03.817Z,144.00
2023-05-04T07:43:03.799Z,143.90
2023-05-04T07:44:03.769Z,143.72
2023-05-04T07:45:03.753Z,142.92
2023-05-04T07:46:04.031Z,142.61
2023-05-04T07:47:03.800Z,143.41
2023-05-04T07:48:03.875Z,141.51
2023-05-04T07:49:03.873Z,141.95
2023-05-04T07:50:04.282Z,141.41
2023-05-04T07:51:03.968Z,140.78
2023-05-04T07:52:04.023Z,139.33
2023-05-04T07:53:04.063Z,139.70
2023-05-04T07:54:04.112Z,138.10
2023-05-04T07:55:04.242Z,136.38
2023-05-04T07:56:04.265Z,136.65
2023-05-04T07:57:04.251Z,136.67
2023-05-04T07:58:05.271Z,137.23
2023-05-04T07:59:04.339Z,137.76
2023-05-04T08:00:04.524Z,136.74
2023-05-04T08:01:04.451Z,137.35
2023-05-04T08:02:04.596Z,137.29
2023-05-04T08:03:04.595Z,137.23
2023-05-04T08:04:04.607Z,136.93
2023-05-04T08:05:04.676Z,138.05
2023-05-04T08:06:04.739Z,137.69
2023-05-04T08:07:04.757Z,137.18
2023-05-04T08:08:04.824Z,136.29
2023-05-04T08:09:04.853Z,135.93
2023-05-04T08:10:05.103Z,136.48
2023-05-04T08:11:15.967Z,136.19
2023-05-04T08:12:05.924Z,136.29
2023-05-04T08:13:04.948Z,136.48
2023-05-04T08:14:04.879Z,136.48
2023-05-04T08:15:05.078Z,136.89
2023-05-04T08:16:04.838Z,133.85
2023-05-04T08:17:04.910Z,133.19
2023-05-04T08:18:04.838Z,130.31
2023-05-04T08:19:04.810Z,129.61
2023-05-04T08:20:04.771Z,128.58
2023-05-04T08:21:05.063Z,127.37
2023-05-04T08:22:04.832Z,122.80
2023-05-04T08:23:04.862Z,95.79
2023-05-04T08:24:04.867Z,93.61
2023-05-04T08:25:05.040Z,87.77
2023-05-04T08:26:04.853Z,83.25
2023-05-04T08:27:08.778Z,83.03
2023-05-04T08:28:05.810Z,83.17
2023-05-04T08:29:04.793Z,83.83
2023-05-04T08:30:04.770Z,84.57
2023-05-04T08:31:04.751Z,87.22
2023-05-04T08:32:04.840Z,90.84
2023-05-04T08:33:04.801Z,94.30
2023-05-04T08:34:04.709Z,95.23
2023-05-04T08:35:04.813Z,97.30
2023-05-04T08:36:04.695Z,98.67
2023-05-04T08:37:04.768Z,100.64
2023-05-04T08:38:04.814Z,102.66
2023-05-04T08:39:05.699Z,103.53
2023-05-04T08:40:04.896Z,105.19
2023-05-04T08:41:04.954Z,106.93
2023-05-04T08:42:05.004Z,106.92
2023-05-04T08:43:05.065Z,108.95
2023-05-04T08:44:05.126Z,110.81
2023-05-04T08:45:05.481Z,112.26
2023-05-04T08:46:05.333Z,111.87
2023-05-04T08:47:05.249Z,114.29
2023-05-04T08:48:05.338Z,114.57
2023-05-04T08:49:05.363Z,114.48
2023-05-04T08:50:05.385Z,115.02
2023-05-04T08:51:05.434Z,115.56
2023-05-04T08:52:05.458Z,116.45
2023-05-04T08:53:05.492Z,118.98
2023-05-04T08:54:05.510Z,119.42
2023-05-04T08:55:05.718Z,120.32
2023-05-04T08:56:05.564Z,120.47
2023-05-04T08:57:05.599Z,122.23
2023-05-04T08:58:05.617Z,123.57
2023-05-04T08:59:05.647Z,127.14
2023-05-04T09:00:05.657Z,124.78
2023-05-04T09:01:05.723Z,127.89
2023-05-04T09:02:05.920Z,129.81
2023-05-04T09:03:05.747Z,130.01
2023-05-04T09:04:06.363Z,131.57
2023-05-04T09:05:05.888Z,133.60
2023-05-04T09:06:05.896Z,136.72
2023-05-04T09:07:05.704Z,139.14
2023-05-04T09:08:05.706Z,140.23
2023-05-04T09:09:05.689Z,141.52
2023-05-04T09:10:05.672Z,142.55
2023-05-04T09:11:05.685Z,144.02
2023-05-04T09:12:05.665Z,143.51
2023-05-04T09:13:05.739Z,145.42
2023-05-04T09:14:05.653Z,146.99
2023-05-04T09:15:06.141Z,142.57
2023-05-04T09:16:05.668Z,135.61
2023-05-04T09:17:05.744Z,132.79
2023-05-04T09:18:05.712Z,127.90
2023-05-04T09:19:06.296Z,126.30
2023-05-04T09:20:05.761Z,123.98
2023-05-04T09:21:05.814Z,123.24
2023-05-04T09:22:05.794Z,124.15
2023-05-04T09:23:05.811Z,123.61
2023-05-04T09:24:06.299Z,126.22
2023-05-04T09:25:06.032Z,129.19
2023-05-04T09:26:05.908Z,130.37
2023-05-04T09:27:05.931Z,130.48
2023-05-04T09:28:05.944Z,133.09
2023-05-04T09:29:05.956Z,134.95
2023-05-04T09:30:06.008Z,136.15
2023-05-04T09:31:05.996Z,139.56
2023-05-04T09:32:06.024Z,140.63
2023-05-04T09:33:06.034Z,142.58
2023-05-04T09:34:05.995Z,143.95
2023-05-04T09:35:06.185Z,145.21
2023-05-04T09:36:06.007Z,147.52
2023-05-04T09:37:06.013Z,148.44
2023-05-04T09:38:06.760Z,149.58
2023-05-04T09:39:06.039Z,150.79
2023-05-04T09:40:06.045Z,151.49
2023-05-04T09:41:06.044Z,150.97
2023-05-04T09:42:06.052Z,149.83
2023-05-04T09:43:06.046Z,150.71
2023-05-04T09:44:06.054Z,150.67
2023-05-04T09:45:06.383Z,150.42
2023-05-04T09:46:06.054Z,151.52
2023-05-04T09:47:06.045Z,152.09
2023-05-04T09:48:06.072Z,153.25
2023-05-04T09:49:06.028Z,154.54
2023-05-04T09:50:06.052Z,156.23
2023-05-04T09:51:06.022Z,157.22
2023-05-04T09:52:06.030Z,156.74
2023-05-04T09:53:06.018Z,157.31
2023-05-04T09:54:05.995Z,155.99
2023-05-04T09:55:06.275Z,154.66
2023-05-04T09:56:08.133Z,155.55
2023-05-04T09:57:06.314Z,155.72
2023-05-04T09:58:05.952Z,156.51
2023-05-04T09:59:05.939Z,156.59
2023-05-04T10:00:05.912Z,156.86
2023-05-04T10:01:05.890Z,156.69
2023-05-04T10:02:18.095Z,156.85
2023-05-04T10:03:06.898Z,156.60
2023-05-04T10:04:05.819Z,156.74
2023-05-04T10:05:06.100Z,156.61
2023-05-04T10:06:05.838Z,153.59
2023-05-04T10:07:06.736Z,153.77
2023-05-04T10:08:05.777Z,152.56
2023-05-04T10:09:05.761Z,151.42
2023-05-04T10:10:05.702Z,151.08
2023-05-04T10:11:05.701Z,149.42
2023-05-04T10:12:05.674Z,145.21
2023-05-04T10:13:05.716Z,141.56
2023-05-04T10:14:05.698Z,144.04
2023-05-04T10:15:05.712Z,143.28
2023-05-04T10:16:05.603Z,143.54
2023-05-04T10:17:05.549Z,143.88
2023-05-04T10:18:05.525Z,142.65
2023-05-04T10:19:05.499Z,140.30
2023-05-04T10:20:05.496Z,138.84
2023-05-04T10:21:05.463Z,138.41
2023-05-04T10:22:06.286Z,139.54
2023-05-04T10:23:05.465Z,141.32
2023-05-04T10:24:05.421Z,140.28
2023-05-04T10:25:05.555Z,141.37
2023-05-04T10:26:05.319Z,142.79
2023-05-04T10:27:05.303Z,142.88
2023-05-04T10:28:05.269Z,143.48
2023-05-04T10:29:05.281Z,145.69
2023-05-04T10:30:05.309Z,145.47
2023-05-04T10:31:05.317Z,147.11
2023-05-04T10:32:05.500Z,147.75
2023-05-04T10:33:05.407Z,148.15
2023-05-04T10:34:05.362Z,150.01
2023-05-04T10:35:05.632Z,150.10
2023-05-04T10:36:05.404Z,151.52
2023-05-04T10:37:05.429Z,151.30
2023-05-04T10:38:05.455Z,152.41
2023-05-04T10:39:05.479Z,152.39
2023-05-04T10:40:07.679Z,153.33
2023-05-04T10:41:05.560Z,153.59
2023-05-04T10:42:05.609Z,153.95
2023-05-04T10:43:05.620Z,154.06
2023-05-04T10:44:05.649Z,154.92
2023-05-04T10:45:05.877Z,155.62
2023-05-04T10:46:05.785Z,156.68
2023-05-04T10:47:05.808Z,155.81
2023-05-04T10:48:05.783Z,156.89
2023-05-04T10:49:05.812Z,157.04
2023-05-04T10:50:05.794Z,156.95
2023-05-04T10:51:05.852Z,158.16
2023-05-04T10:52:05.877Z,157.88
2023-05-04T10:53:05.886Z,157.77
2023-05-04T10:54:05.908Z,158.72
2023-05-04T10:55:06.261Z,158.66
2023-05-04T10:56:05.961Z,158.46
2023-05-04T10:57:05.980Z,159.34
2023-05-04T10:58:06.033Z,159.09
2023-05-04T10:59:06.156Z,159.84
2023-05-04T11:00:06.093Z,158.12
2023-05-04T11:01:06.154Z,159.91
2023-05-04T11:02:06.184Z,159.22
2023-05-04T11:03:06.311Z,159.93
2023-05-04T11:04:06.245Z,159.74
2023-05-04T11:05:06.543Z,160.22
2023-05-04T11:06:06.305Z,160.17
2023-05-04T11:07:06.510Z,160.42
2023-05-04T11:08:06.414Z,159.48
2023-05-04T11:09:06.457Z,160.46
2023-05-04T11:10:06.501Z,161.95
2023-05-04T11:11:06.536Z,162.25
2023-05-04T11:12:06.636Z,162.73
2023-05-04T11:13:07.731Z,163.30
2023-05-04T11:14:06.662Z,162.50
2023-05-04T11:15:06.968Z,163.73
2023-05-04T11:16:06.769Z,163.99
2023-05-04T11:17:12.708Z,163.75
2023-05-04T11:18:07.800Z,163.84
2023-05-04T11:19:06.733Z,163.87
2023-05-04T11:20:06.717Z,163.73
2023-05-04T11:21:06.698Z,164.31
2023-05-04T11:22:07.680Z,163.84
2023-05-04T11:23:06.659Z,163.90
2023-05-04T11:24:06.640Z,164.38
2023-05-04T11:25:06.746Z,164.99
2023-05-04T11:26:06.636Z,165.71
2023-05-04T11:27:06.656Z,164.72
2023-05-04T11:28:06.685Z,164.46
2023-05-04T11:29:06.702Z,164.82
2023-05-04T11:30:06.817Z,163.58
2023-05-04T11:31:06.814Z,163.86
2023-05-04T11:32:06.793Z,162.79
2023-05-04T11:33:06.864Z,164.99
2023-05-04T11:34:06.842Z,163.76
2023-05-04T11:35:07.069Z,164.16
2023-05-04T11:36:06.889Z,163.65
2023-05-04T11:37:06.922Z,164.45
2023-05-04T11:38:07.013Z,163.33
2023-05-04T11:39:06.977Z,163.90
2023-05-04T11:40:07.005Z,163.94
2023-05-04T11:41:07.034Z,164.40
2023-05-04T11:42:07.864Z,164.45
2023-05-04T11:43:07.137Z,163.89
2023-05-04T11:44:07.144Z,164.03
2023-05-04T11:45:07.429Z,164.39
2023-05-04T11:46:07.268Z,164.77
2023-05-04T11:47:07.247Z,165.28
2023-05-04T11:48:07.331Z,166.45
2023-05-04T11:49:07.396Z,166.51
2023-05-04T11:50:07.343Z,166.96
2023-05-04T11:51:07.455Z,166.88
2023-05-04T11:52:07.409Z,168.77
2023-05-04T11:53:07.431Z,168.47
2023-05-04T11:54:07.454Z,168.74
2023-05-04T11:55:07.763Z,171.98
2023-05-04T11:56:07.503Z,172.37
2023-05-04T11:57:07.518Z,173.97
2023-05-04T11:58:07.552Z,174.96
2023-05-04T11:59:07.563Z,176.78
2023-05-04T12:00:08.351Z,177.46
2023-05-04T12:01:07.600Z,178.24
2023-05-04T12:02:07.603Z,180.51
2023-05-04T12:03:07.763Z,181.00
2023-05-04T12:04:07.806Z,183.09
2023-05-04T12:05:07.836Z,184.16
2023-05-04T12:06:07.675Z,184.99
2023-05-04T12:07:07.697Z,186.35
2023-05-04T12:08:07.716Z,187.94
2023-05-04T12:09:07.726Z,188.31
2023-05-04T12:10:07.728Z,189.61
2023-05-04T12:11:07.743Z,190.34
2023-05-04T12:12:07.794Z,192.38
2023-05-04T12:13:08.424Z,193.11
2023-05-04T12:14:07.864Z,193.33
2023-05-04T12:15:08.053Z,193.26
2023-05-04T12:16:07.826Z,194.65
2023-05-04T12:17:07.813Z,197.12
2023-05-04T12:18:07.864Z,197.33
2023-05-04T12:19:07.844Z,198.15
2023-05-04T12:20:07.922Z,197.30
2023-05-04T12:21:07.879Z,198.19
2023-05-04T12:22:07.883Z,199.02
2023-05-04T12:23:07.903Z,199.63
2023-05-04T12:24:07.923Z,198.04
2023-05-04T12:25:08.244Z,200.30
2023-05-04T12:26:07.943Z,196.28
2023-05-04T12:27:07.955Z,191.39
2023-05-04T12:28:08.862Z,186.97
2023-05-04T12:29:08.006Z,186.15